Capewater — PBPQ — position and weather

sailwx.info

Track history (hours):
 
Tides and Currents Weather Stations Pressure Air Temp Water Temp Dewpoint Dewpoint Depression Visibility Wind Speed Wind Dir Waves Ship Positions

Capewater

Last reported at 2014-Sep-17 06:33 UTC. Time now 2014-Sep-17 07:33 UTC.
Position N 51°09' E 004°20'.

Length 100 m; draft 6.9 m.

Type: Tanker. MMSI: 246346000.

Date/timePositionNaut miles runAvg speedWind from/ knotsBaromVisibWave heightAir tempDewpointWater temp
2014-Sep-17 06:33N 51°09' E 004°20'0 0.0
2014-Sep-17 05:24N 51°09' E 004°20'0 0.0
2014-Sep-17 02:18N 51°09' E 004°20'0 0.0
2014-Sep-17 01:30N 51°09' E 004°20'0 0.0
2014-Sep-16 23:10N 51°09' E 004°20'2 4.0
2014-Sep-16 22:34N 51°11' E 004°20'4 3.8
2014-Sep-16 21:33N 51°15' E 004°19'10 9.6
2014-Sep-16 20:33N 51°24' E 004°12'9 9.1
2014-Sep-16 19:34N 51°24' E 003°57'1211.5
2014-Sep-16 18:34N 51°25' E 003°39'1111.3
2014-Sep-16 17:33N 51°32' E 003°25'1513.7
2014-Sep-16 16:28N 51°45' E 003°14'1414.8
2014-Sep-16 15:34N 51°58' E 003°20'1312.9
2014-Sep-16 14:34N 52°03' E 003°40'1413.9
2014-Sep-16 13:33N 51°60' E 004°02'1313.3
2014-Sep-16 12:33N 51°53' E 004°21'0 0.0
2014-Sep-16 11:28N 51°53' E 004°21'0 0.0
2014-Sep-16 10:31N 51°53' E 004°21'0 0.0
2014-Sep-16 09:25N 51°53' E 004°21'0 0.0
2014-Sep-16 08:28N 51°53' E 004°21'0 0.0
2014-Sep-16 07:25N 51°53' E 004°21'0 0.0
2014-Sep-16 06:28N 51°53' E 004°21'0 0.0
2014-Sep-16 05:28N 51°53' E 004°21'0 0.0
2014-Sep-16 04:25N 51°53' E 004°21'0 0.0
2014-Sep-16 03:28N 51°53' E 004°21'0 0.0
2014-Sep-16 02:22N 51°53' E 004°21'0 0.0
2014-Sep-16 01:28N 51°53' E 004°21'0 0.0
2014-Sep-16 00:28N 51°53' E 004°21'0 0.0
2014-Sep-15 23:28N 51°53' E 004°21'0 0.0
2014-Sep-15 22:28N 51°53' E 004°21'0 0.0
2014-Sep-15 21:31N 51°53' E 004°21'0 0.0
2014-Sep-15 20:19N 51°53' E 004°21'0 0.4
2014-Sep-15 19:33N 51°53' E 004°21'7 7.1
2014-Sep-15 18:33N 51°57' E 004°11'1313.4
2014-Sep-15 17:33N 52°00' E 003°50'9 9.3
2014-Sep-15 16:33N 52°09' E 003°46'1413.9
2014-Sep-15 15:33N 52°23' E 003°49'1614.5
2014-Sep-15 14:27N 52°39' E 003°53'4213.8
2014-Sep-15 11:27N 53°15' E 004°27'1212.8
2014-Sep-15 10:31N 53°26' E 004°36'1212.0
2014-Sep-15 09:33N 53°31' E 004°53'1212.4
2014-Sep-15 08:33N 53°36' E 005°12'1313.4
2014-Sep-15 07:33N 53°40' E 005°34'1414.4
2014-Sep-15 06:34N 53°44' E 005°57'1514.7
2014-Sep-15 05:33N 53°50' E 006°20'4214.1
2014-Sep-15 02:33N 54°00' E 007°30'1313.0
2014-Sep-15 01:33N 54°01' E 007°52'1212.4
2014-Sep-15 00:33N 54°01' E 008°13'1211.5
2014-Sep-14 23:33N 53°58' E 008°32'1413.9
2014-Sep-14 22:34N 53°50' E 008°51'1110.6
2014-Sep-14 21:33N 53°54' E 009°09'4 4.0
2014-Sep-14 20:33N 53°56' E 009°13'9 8.6
2014-Sep-14 19:34N 54°04' E 009°19'5 5.1
2014-Sep-14 18:33N 54°09' E 009°22'8 8.3
2014-Sep-14 17:34N 54°13' E 009°35'3 3.3
2014-Sep-14 16:34N 54°16' E 009°37'50 7.1
2014-Sep-14 09:33N 54°35' E 010°56'1414.1
2014-Sep-14 08:33N 54°33' E 011°20'1514.5
2014-Sep-14 07:33N 54°27' E 011°42'1414.3
2014-Sep-14 06:33N 54°27' E 012°07'1312.9
2014-Sep-14 05:33N 54°38' E 012°18'1413.8
2014-Sep-14 04:33N 54°46' E 012°38'1313.0
2014-Sep-14 03:33N 54°47' E 013°01'1413.9
2014-Sep-14 02:34N 54°47' E 013°25'1413.8
2014-Sep-14 01:34N 54°44' E 013°48'10813.4
2014-Sep-13 17:32N 54°51' E 016°55'1414.1
2014-Sep-13 16:33N 54°54' E 017°18'1414.2
2014-Sep-13 15:33N 54°58' E 017°42'1413.9
2014-Sep-13 14:33N 55°01' E 018°05'1413.9
2014-Sep-13 13:33N 54°60' E 018°29'1414.1
2014-Sep-13 12:33N 54°54' E 018°52'1414.1
2014-Sep-13 11:33N 54°49' E 019°15'1414.0
2014-Sep-13 10:33N 54°44' E 019°37'1211.8
2014-Sep-13 09:33N 54°38' E 019°55'8 8.4
2014-Sep-13 08:33N 54°41' E 020°09'1 0.2
2014-Sep-12 23:32N 54°41' E 020°11'0 0.0
2014-Sep-12 22:29N 54°41' E 020°11'0 0.0
2014-Sep-12 21:29N 54°41' E 020°11'0 0.0
2014-Sep-12 18:11N 54°41' E 020°11'0 0.0
2014-Sep-12 03:31N 54°41' E 020°11'6 6.6
2014-Sep-12 02:33N 54°38' E 020°02'8 7.7
2014-Sep-12 01:33N 54°40' E 019°49'3 2.8
2014-Sep-12 00:33N 54°41' E 019°44'6 6.2
2014-Sep-11 23:33N 54°46' E 019°38'10 9.9
2014-Sep-11 22:33N 54°56' E 019°37'1010.0
2014-Sep-11 21:33N 55°06' E 019°35'1110.7
2014-Sep-11 20:33N 55°16' E 019°43'1110.8
2014-Sep-11 19:33N 55°25' E 019°53'1110.8
2014-Sep-11 18:33N 55°35' E 020°00'1110.8
2014-Sep-11 17:33N 55°45' E 020°09'1110.7
2014-Sep-11 16:33N 55°54' E 020°17'1110.6
2014-Sep-11 15:33N 56°04' E 020°26'1110.7
2014-Sep-11 14:33N 56°13' E 020°35'  
2014-Sep-09 08:33N 55°06' E 019°24'1515.1
2014-Sep-09 07:33N 54°53' E 019°11'1515.0
2014-Sep-09 06:33N 54°40' E 018°58'1313.3
2014-Sep-09 05:33N 54°32' E 018°40'4 4.1
2014-Sep-09 04:33N 54°32' E 018°33'0 0.0
2014-Sep-09 03:33N 54°32' E 018°33'0 0.0
2014-Sep-09 02:33N 54°32' E 018°33'0 0.0
2014-Sep-09 01:32N 54°32' E 018°33'0 0.0
2014-Sep-09 00:33N 54°32' E 018°33'0 0.0
2014-Sep-08 23:32N 54°32' E 018°33'0 0.0
2014-Sep-08 22:33N 54°32' E 018°33'0 0.0
2014-Sep-08 21:33N 54°32' E 018°33'0 0.0
2014-Sep-08 20:32N 54°32' E 018°33'0 0.0
2014-Sep-08 19:32N 54°32' E 018°33'0 0.0
2014-Sep-08 18:32N 54°32' E 018°33'0 0.0
2014-Sep-08 17:32N 54°32' E 018°33'0 0.0
2014-Sep-08 16:33N 54°32' E 018°33'0 0.0
2014-Sep-08 15:32N 54°32' E 018°33'0 0.0
2014-Sep-08 14:32N 54°32' E 018°33'0 0.0
2014-Sep-08 13:29N 54°32' E 018°33'0 0.0
2014-Sep-08 12:34N 54°32' E 018°33'5 5.5
2014-Sep-08 11:33N 54°31' E 018°43'0 0.1
2014-Sep-08 10:32N 54°31' E 018°43'0 0.0
2014-Sep-08 09:32N 54°31' E 018°43'0 0.0
2014-Sep-08 08:32N 54°31' E 018°43'0 0.0
2014-Sep-08 07:32N 54°31' E 018°43'0 0.0
2014-Sep-08 06:32N 54°31' E 018°42'0 0.0
2014-Sep-08 05:32N 54°31' E 018°43'0 0.0
2014-Sep-08 04:32N 54°31' E 018°43'0 0.0
2014-Sep-08 03:32N 54°31' E 018°43'0 0.0
2014-Sep-08 02:32N 54°31' E 018°42'0 0.0
2014-Sep-08 01:32N 54°31' E 018°42'0 0.0
2014-Sep-08 00:32N 54°31' E 018°43'0 0.0
2014-Sep-07 23:32N 54°31' E 018°43'0 0.0
2014-Sep-07 21:32N 54°31' E 018°42'0 0.0
2014-Sep-07 20:32N 54°31' E 018°42'0 0.0
2014-Sep-07 19:32N 54°31' E 018°42'0 0.0
2014-Sep-07 18:32N 54°31' E 018°42'0 0.0
2014-Sep-07 17:32N 54°31' E 018°42'6 5.7
2014-Sep-07 16:33N 54°34' E 018°51'8 8.3
2014-Sep-07 15:34N 54°41' E 018°57'5 4.8
2014-Sep-07 14:34N 54°45' E 019°02'2 1.8
2014-Sep-07 13:34N 54°45' E 019°05'1514.6
2014-Sep-07 12:34N 54°33' E 018°50'1010.1
2014-Sep-07 11:33N 54°32' E 018°33'0 0.0
2014-Sep-07 10:33N 54°32' E 018°33'0 0.0
2014-Sep-07 09:33N 54°32' E 018°33'0 0.0
2014-Sep-07 08:33N 54°32' E 018°33'0 0.0
2014-Sep-07 07:33N 54°32' E 018°33'  
Track history (hours):
 
Tides and Currents Weather Stations Pressure Air Temp Water Temp Dewpoint Dewpoint Depression Visibility Wind Speed Wind Dir Waves Ship Positions

Capewater

Last reported at 2014-Sep-17 06:33 UTC. Time now 2014-Sep-17 07:33 UTC.
Position N 51°09' E 004°20'.

Length 100 m; draft 6.9 m.

Type: Tanker. MMSI: 246346000.

Date/timePositionNaut miles runAvg speedWind from/ knotsBaromVisibWave heightAir tempDewpointWater temp
2014-Sep-17 06:33N 51°09' E 004°20'0 0.0
2014-Sep-17 05:24N 51°09' E 004°20'0 0.0
2014-Sep-17 02:18N 51°09' E 004°20'0 0.0
2014-Sep-17 01:30N 51°09' E 004°20'0 0.0
2014-Sep-16 23:10N 51°09' E 004°20'2 4.0
2014-Sep-16 22:34N 51°11' E 004°20'4 3.8
2014-Sep-16 21:33N 51°15' E 004°19'10 9.6
2014-Sep-16 20:33N 51°24' E 004°12'9 9.1
2014-Sep-16 19:34N 51°24' E 003°57'1211.5
2014-Sep-16 18:34N 51°25' E 003°39'1111.3
2014-Sep-16 17:33N 51°32' E 003°25'1513.7
2014-Sep-16 16:28N 51°45' E 003°14'1414.8
2014-Sep-16 15:34N 51°58' E 003°20'1312.9
2014-Sep-16 14:34N 52°03' E 003°40'1413.9
2014-Sep-16 13:33N 51°60' E 004°02'1313.3
2014-Sep-16 12:33N 51°53' E 004°21'0 0.0
2014-Sep-16 11:28N 51°53' E 004°21'0 0.0
2014-Sep-16 10:31N 51°53' E 004°21'0 0.0
2014-Sep-16 09:25N 51°53' E 004°21'0 0.0
2014-Sep-16 08:28N 51°53' E 004°21'0 0.0
2014-Sep-16 07:25N 51°53' E 004°21'0 0.0
2014-Sep-16 06:28N 51°53' E 004°21'0 0.0
2014-Sep-16 05:28N 51°53' E 004°21'0 0.0
2014-Sep-16 04:25N 51°53' E 004°21'0 0.0
2014-Sep-16 03:28N 51°53' E 004°21'0 0.0
2014-Sep-16 02:22N 51°53' E 004°21'0 0.0
2014-Sep-16 01:28N 51°53' E 004°21'0 0.0
2014-Sep-16 00:28N 51°53' E 004°21'0 0.0
2014-Sep-15 23:28N 51°53' E 004°21'0 0.0
2014-Sep-15 22:28N 51°53' E 004°21'0 0.0
2014-Sep-15 21:31N 51°53' E 004°21'0 0.0
2014-Sep-15 20:19N 51°53' E 004°21'0 0.4
2014-Sep-15 19:33N 51°53' E 004°21'7 7.1
2014-Sep-15 18:33N 51°57' E 004°11'1313.4
2014-Sep-15 17:33N 52°00' E 003°50'9 9.3
2014-Sep-15 16:33N 52°09' E 003°46'1413.9
2014-Sep-15 15:33N 52°23' E 003°49'1614.5
2014-Sep-15 14:27N 52°39' E 003°53'4213.8
2014-Sep-15 11:27N 53°15' E 004°27'1212.8
2014-Sep-15 10:31N 53°26' E 004°36'1212.0
2014-Sep-15 09:33N 53°31' E 004°53'1212.4
2014-Sep-15 08:33N 53°36' E 005°12'1313.4
2014-Sep-15 07:33N 53°40' E 005°34'1414.4
2014-Sep-15 06:34N 53°44' E 005°57'1514.7
2014-Sep-15 05:33N 53°50' E 006°20'4214.1
2014-Sep-15 02:33N 54°00' E 007°30'1313.0
2014-Sep-15 01:33N 54°01' E 007°52'1212.4
2014-Sep-15 00:33N 54°01' E 008°13'1211.5
2014-Sep-14 23:33N 53°58' E 008°32'1413.9
2014-Sep-14 22:34N 53°50' E 008°51'1110.6
2014-Sep-14 21:33N 53°54' E 009°09'4 4.0
2014-Sep-14 20:33N 53°56' E 009°13'9 8.6
2014-Sep-14 19:34N 54°04' E 009°19'5 5.1
2014-Sep-14 18:33N 54°09' E 009°22'8 8.3
2014-Sep-14 17:34N 54°13' E 009°35'3 3.3
2014-Sep-14 16:34N 54°16' E 009°37'50 7.1
2014-Sep-14 09:33N 54°35' E 010°56'1414.1
2014-Sep-14 08:33N 54°33' E 011°20'1514.5
2014-Sep-14 07:33N 54°27' E 011°42'1414.3
2014-Sep-14 06:33N 54°27' E 012°07'1312.9
2014-Sep-14 05:33N 54°38' E 012°18'1413.8
2014-Sep-14 04:33N 54°46' E 012°38'1313.0
2014-Sep-14 03:33N 54°47' E 013°01'1413.9
2014-Sep-14 02:34N 54°47' E 013°25'1413.8
2014-Sep-14 01:34N 54°44' E 013°48'10813.4
2014-Sep-13 17:32N 54°51' E 016°55'1414.1
2014-Sep-13 16:33N 54°54' E 017°18'1414.2
2014-Sep-13 15:33N 54°58' E 017°42'1413.9
2014-Sep-13 14:33N 55°01' E 018°05'1413.9
2014-Sep-13 13:33N 54°60' E 018°29'1414.1
2014-Sep-13 12:33N 54°54' E 018°52'1414.1
2014-Sep-13 11:33N 54°49' E 019°15'1414.0
2014-Sep-13 10:33N 54°44' E 019°37'1211.8
2014-Sep-13 09:33N 54°38' E 019°55'8 8.4
2014-Sep-13 08:33N 54°41' E 020°09'1 0.2
2014-Sep-12 23:32N 54°41' E 020°11'0 0.0
2014-Sep-12 22:29N 54°41' E 020°11'0 0.0
2014-Sep-12 21:29N 54°41' E 020°11'0 0.0
2014-Sep-12 18:11N 54°41' E 020°11'0 0.0
2014-Sep-12 03:31N 54°41' E 020°11'6 6.6
2014-Sep-12 02:33N 54°38' E 020°02'8 7.7
2014-Sep-12 01:33N 54°40' E 019°49'3 2.8
2014-Sep-12 00:33N 54°41' E 019°44'6 6.2
2014-Sep-11 23:33N 54°46' E 019°38'10 9.9
2014-Sep-11 22:33N 54°56' E 019°37'1010.0
2014-Sep-11 21:33N 55°06' E 019°35'1110.7
2014-Sep-11 20:33N 55°16' E 019°43'1110.8
2014-Sep-11 19:33N 55°25' E 019°53'1110.8
2014-Sep-11 18:33N 55°35' E 020°00'1110.8
2014-Sep-11 17:33N 55°45' E 020°09'1110.7
2014-Sep-11 16:33N 55°54' E 020°17'1110.6
2014-Sep-11 15:33N 56°04' E 020°26'1110.7
2014-Sep-11 14:33N 56°13' E 020°35'  
2014-Sep-09 08:33N 55°06' E 019°24'1515.1
2014-Sep-09 07:33N 54°53' E 019°11'1515.0
2014-Sep-09 06:33N 54°40' E 018°58'1313.3
2014-Sep-09 05:33N 54°32' E 018°40'4 4.1
2014-Sep-09 04:33N 54°32' E 018°33'0 0.0
2014-Sep-09 03:33N 54°32' E 018°33'0 0.0
2014-Sep-09 02:33N 54°32' E 018°33'0 0.0
2014-Sep-09 01:32N 54°32' E 018°33'0 0.0
2014-Sep-09 00:33N 54°32' E 018°33'0 0.0
2014-Sep-08 23:32N 54°32' E 018°33'0 0.0
2014-Sep-08 22:33N 54°32' E 018°33'0 0.0
2014-Sep-08 21:33N 54°32' E 018°33'0 0.0
2014-Sep-08 20:32N 54°32' E 018°33'0 0.0
2014-Sep-08 19:32N 54°32' E 018°33'0 0.0
2014-Sep-08 18:32N 54°32' E 018°33'0 0.0
2014-Sep-08 17:32N 54°32' E 018°33'0 0.0
2014-Sep-08 16:33N 54°32' E 018°33'0 0.0
2014-Sep-08 15:32N 54°32' E 018°33'0 0.0
2014-Sep-08 14:32N 54°32' E 018°33'0 0.0
2014-Sep-08 13:29N 54°32' E 018°33'0 0.0
2014-Sep-08 12:34N 54°32' E 018°33'5 5.5
2014-Sep-08 11:33N 54°31' E 018°43'0 0.1
2014-Sep-08 10:32N 54°31' E 018°43'0 0.0
2014-Sep-08 09:32N 54°31' E 018°43'0 0.0
2014-Sep-08 08:32N 54°31' E 018°43'0 0.0
2014-Sep-08 07:32N 54°31' E 018°43'0 0.0
2014-Sep-08 06:32N 54°31' E 018°42'0 0.0
2014-Sep-08 05:32N 54°31' E 018°43'0 0.0
2014-Sep-08 04:32N 54°31' E 018°43'0 0.0
2014-Sep-08 03:32N 54°31' E 018°43'0 0.0
2014-Sep-08 02:32N 54°31' E 018°42'0 0.0
2014-Sep-08 01:32N 54°31' E 018°42'0 0.0
2014-Sep-08 00:32N 54°31' E 018°43'0 0.0
2014-Sep-07 23:32N 54°31' E 018°43'0 0.0
2014-Sep-07 21:32N 54°31' E 018°42'0 0.0
2014-Sep-07 20:32N 54°31' E 018°42'0 0.0
2014-Sep-07 19:32N 54°31' E 018°42'0 0.0
2014-Sep-07 18:32N 54°31' E 018°42'0 0.0
2014-Sep-07 17:32N 54°31' E 018°42'6 5.7
2014-Sep-07 16:33N 54°34' E 018°51'8 8.3
2014-Sep-07 15:34N 54°41' E 018°57'5 4.8
2014-Sep-07 14:34N 54°45' E 019°02'2 1.8
2014-Sep-07 13:34N 54°45' E 019°05'1514.6
2014-Sep-07 12:34N 54°33' E 018°50'1010.1
2014-Sep-07 11:33N 54°32' E 018°33'0 0.0
2014-Sep-07 10:33N 54°32' E 018°33'0 0.0
2014-Sep-07 09:33N 54°32' E 018°33'0 0.0
2014-Sep-07 08:33N 54°32' E 018°33'0 0.0
2014-Sep-07 07:33N 54°32' E 018°33'  

Dump ship's entire track history